Alyeska Resort
Hourly Weather - Base Weather Site
ALY_BASE_HR 8/28/2015
CLICK TO VIEW GRAPH!!

        DATE  TIME   Air  BATT   H2o   H2o   Rel
                    Temp  Volt  Inch Since  Hum%
                      F   AVG   1HR  0600   AVG

   8/28/2015 01:00    50 13.74  0.00  0.03    58
   8/27/2015 24:00    50 13.73  0.00  0.03    60
   8/27/2015 23:00    49 13.70  0.00  0.03    66
   8/27/2015 22:00    50 13.64  0.00  0.03    61
   8/27/2015 21:00    54 13.58  0.00  0.03    39
   8/27/2015 20:00    57 13.53  0.00  0.03    31
   8/27/2015 19:00    60 13.49  0.00  0.03    37
   8/27/2015 18:00    61 13.48  0.00  0.03    39
   8/27/2015 17:00    63 13.45  0.00  0.03    34
   8/27/2015 16:00    65 13.44  0.00  0.03    34
   8/27/2015 15:00    65 13.45  0.00  0.03    38
   8/27/2015 14:00    64 13.50  0.00  0.03    40
   8/27/2015 13:00    61 13.58  0.00  0.03    54
   8/27/2015 12:00    56 13.64  0.00  0.03    79
   8/27/2015 11:00    55 13.66  0.00  0.03    87
   8/27/2015 10:00    52 13.70  0.02  0.03    93
   8/27/2015 09:00    50 13.73  0.01  0.01    95
   8/27/2015 08:00    49 13.73  0.00  0.00    95
   8/27/2015 07:00    50 13.72  0.00  0.00    95
   8/27/2015 06:00    51 13.70  0.00  0.16    95
   8/27/2015 05:00    50 13.71  0.00  0.16    95
   8/27/2015 04:00    50 13.71  0.00  0.16    96
   8/27/2015 03:00    50 13.71  0.00  0.16    95
   8/27/2015 02:00    50 13.70  0.00  0.16    95


CLICK TO VIEW GRAPH!!